createdAt,value
2022-12-23T00:01:00.350Z,3.50
2022-12-23T00:03:27.709Z,3.50
2022-12-23T00:05:56.453Z,3.50
2022-12-23T00:08:23.196Z,3.50
2022-12-23T00:10:50.484Z,3.40
2022-12-23T00:13:37.427Z,3.40
2022-12-23T00:16:05.502Z,3.30
2022-12-23T00:18:32.569Z,3.40
2022-12-23T00:21:06.653Z,3.40
2022-12-23T00:23:35.930Z,3.50
2022-12-23T00:26:02.941Z,3.50
2022-12-23T00:28:30.459Z,3.50
2022-12-23T00:31:04.871Z,3.60
2022-12-23T00:33:33.025Z,3.60
2022-12-23T00:36:00.390Z,3.60
2022-12-23T00:38:46.337Z,3.60
2022-12-23T00:41:31.500Z,3.60
2022-12-23T00:43:59.267Z,3.70
2022-12-23T00:46:26.039Z,3.70
2022-12-23T00:49:11.547Z,3.70
2022-12-23T00:51:38.195Z,3.70
2022-12-23T00:54:06.968Z,3.60
2022-12-23T00:56:33.940Z,3.60
2022-12-23T00:59:00.608Z,3.60
2022-12-23T01:01:45.910Z,3.60
2022-12-23T01:04:32.045Z,3.60
2022-12-23T01:06:58.738Z,3.70
2022-12-23T01:09:25.553Z,3.80
2022-12-23T01:11:52.162Z,3.90
2022-12-23T01:14:18.865Z,4.00
2022-12-23T01:16:45.598Z,4.10
2022-12-23T01:19:12.751Z,4.10
2022-12-23T01:21:39.495Z,4.20
2022-12-23T01:24:06.268Z,4.20
2022-12-23T01:26:33.013Z,4.20
2022-12-23T01:28:59.651Z,4.10
2022-12-23T01:31:26.743Z,4.10
2022-12-23T01:33:53.511Z,4.10
2022-12-23T01:36:20.703Z,4.00
2022-12-23T01:38:47.347Z,4.00
2022-12-23T01:41:43.425Z,4.00
2022-12-23T01:44:28.626Z,4.10
2022-12-23T01:46:55.243Z,4.10
2022-12-23T01:49:21.903Z,4.10
2022-12-23T01:51:48.521Z,4.20
2022-12-23T01:54:15.171Z,4.20
2022-12-23T01:56:41.892Z,4.20
2022-12-23T01:59:10.697Z,4.20
2022-12-23T02:01:56.114Z,4.10
2022-12-23T02:04:24.126Z,4.10
2022-12-23T02:07:09.912Z,4.10
2022-12-23T02:09:37.908Z,4.00
2022-12-23T02:12:14.227Z,4.10
2022-12-23T02:15:02.660Z,4.10
2022-12-23T02:17:32.035Z,4.10
2022-12-23T02:20:17.514Z,4.10
2022-12-23T02:23:03.082Z,4.10
2022-12-23T02:25:48.153Z,4.20
2022-12-23T02:28:33.770Z,4.20
2022-12-23T02:31:10.439Z,4.20
2022-12-23T02:34:00.251Z,4.20
2022-12-23T02:36:45.145Z,4.30
2022-12-23T02:39:27.225Z,4.30
2022-12-23T02:41:56.341Z,4.30
2022-12-23T02:44:32.337Z,4.40
2022-12-23T02:47:01.435Z,4.40
2022-12-23T02:49:36.400Z,4.40
2022-12-23T02:52:05.662Z,4.40
2022-12-23T02:54:38.819Z,4.50
2022-12-23T02:57:07.491Z,4.50
2022-12-23T02:59:46.416Z,4.60
2022-12-23T03:02:13.227Z,4.60
2022-12-23T03:04:42.157Z,4.60
2022-12-23T03:07:23.956Z,4.60
2022-12-23T03:10:16.930Z,4.70
2022-12-23T03:13:01.899Z,4.70
2022-12-23T03:15:47.419Z,4.80
2022-12-23T03:18:26.121Z,4.80
2022-12-23T03:20:52.731Z,4.80
2022-12-23T03:23:33.704Z,4.90
2022-12-23T03:26:03.397Z,4.90
2022-12-23T03:28:39.124Z,4.90
2022-12-23T03:31:07.756Z,4.90
2022-12-23T03:33:36.231Z,5.00
2022-12-23T03:36:09.378Z,5.00
2022-12-23T03:38:36.732Z,5.10
2022-12-23T03:41:06.745Z,5.10
2022-12-23T03:43:36.546Z,5.10
2022-12-23T03:46:06.866Z,5.20
2022-12-23T03:48:35.636Z,5.20
2022-12-23T03:51:08.220Z,5.30
2022-12-23T03:53:36.174Z,5.30
2022-12-23T03:56:07.591Z,5.40
2022-12-23T03:58:37.995Z,5.40
2022-12-23T04:01:07.843Z,5.40
2022-12-23T04:03:46.710Z,5.40
2022-12-23T04:06:15.810Z,5.40
2022-12-23T04:08:43.704Z,5.40
2022-12-23T04:11:11.099Z,5.40
2022-12-23T04:13:37.950Z,5.40
2022-12-23T04:16:05.325Z,5.50
2022-12-23T04:18:32.118Z,5.50
2022-12-23T04:20:58.864Z,5.50
2022-12-23T04:23:25.463Z,5.50
2022-12-23T04:25:52.123Z,5.60
2022-12-23T04:28:18.897Z,5.50
2022-12-23T04:30:45.484Z,5.60
2022-12-23T04:33:12.263Z,5.60
2022-12-23T04:35:38.929Z,5.60
2022-12-23T04:38:05.616Z,5.60
2022-12-23T04:40:32.237Z,5.60
2022-12-23T04:42:58.913Z,5.70
2022-12-23T04:45:25.543Z,5.70
2022-12-23T04:47:52.331Z,5.70
2022-12-23T04:50:18.987Z,5.70
2022-12-23T04:52:45.579Z,5.70
2022-12-23T04:55:14.579Z,5.80
2022-12-23T04:57:41.206Z,5.80
2022-12-23T05:00:08.167Z,5.80
2022-12-23T05:02:34.959Z,5.80
2022-12-23T05:05:01.750Z,5.90
2022-12-23T05:07:28.413Z,5.90
2022-12-23T05:09:55.120Z,5.90
2022-12-23T05:12:21.752Z,6.00
2022-12-23T05:14:48.390Z,6.00
2022-12-23T05:17:15.039Z,6.10
2022-12-23T05:19:41.644Z,6.10
2022-12-23T05:22:08.242Z,6.10
2022-12-23T05:24:34.858Z,6.10
2022-12-23T05:27:01.514Z,6.10
2022-12-23T05:29:28.292Z,6.10
2022-12-23T05:31:54.984Z,6.10
2022-12-23T05:34:21.706Z,6.20
2022-12-23T05:36:48.481Z,6.20
2022-12-23T05:39:15.099Z,6.20
2022-12-23T05:41:41.664Z,6.20
2022-12-23T05:44:08.348Z,6.30
2022-12-23T05:46:35.048Z,6.30
2022-12-23T05:49:01.826Z,6.30
2022-12-23T05:51:28.533Z,6.30
2022-12-23T05:53:55.168Z,6.30
2022-12-23T05:56:21.795Z,6.30
2022-12-23T05:58:48.639Z,6.40
2022-12-23T06:01:15.302Z,6.40
2022-12-23T06:03:42.032Z,6.40
2022-12-23T06:06:08.800Z,6.40
2022-12-23T06:08:35.426Z,6.40
2022-12-23T06:11:04.121Z,6.30
2022-12-23T06:13:30.835Z,6.40
2022-12-23T06:15:57.464Z,6.40
2022-12-23T06:18:24.061Z,6.40
2022-12-23T06:20:50.706Z,6.40
2022-12-23T06:23:17.308Z,6.40
2022-12-23T06:25:44.121Z,6.40
2022-12-23T06:28:10.812Z,6.40
2022-12-23T06:30:37.513Z,6.40
2022-12-23T06:33:04.330Z,6.40
2022-12-23T06:35:30.939Z,6.50
2022-12-23T06:37:57.560Z,6.50
2022-12-23T06:40:24.238Z,6.50
2022-12-23T06:42:50.855Z,6.50
2022-12-23T06:45:17.588Z,6.50
2022-12-23T06:47:44.656Z,6.50
2022-12-23T06:50:11.433Z,6.50
2022-12-23T06:52:38.096Z,6.50
2022-12-23T06:55:05.056Z,6.50
2022-12-23T06:57:31.647Z,6.50
2022-12-23T06:59:58.240Z,6.50
2022-12-23T07:02:24.956Z,6.50
2022-12-23T07:04:51.671Z,6.50
2022-12-23T07:07:18.669Z,6.50
2022-12-23T07:09:45.354Z,6.50
2022-12-23T07:12:12.092Z,6.60
2022-12-23T07:14:38.677Z,6.50
2022-12-23T07:17:05.333Z,6.60
2022-12-23T07:19:31.962Z,6.60
2022-12-23T07:22:03.255Z,6.60
2022-12-23T07:24:29.925Z,6.60
2022-12-23T07:26:56.556Z,6.60
2022-12-23T07:29:23.141Z,6.60
2022-12-23T07:31:49.915Z,6.60
2022-12-23T07:34:16.592Z,6.70
2022-12-23T07:36:43.256Z,6.70
2022-12-23T07:39:09.914Z,6.70
2022-12-23T07:41:36.566Z,6.70
2022-12-23T07:44:03.206Z,6.70
2022-12-23T07:46:29.865Z,6.80
2022-12-23T07:48:56.521Z,6.80
2022-12-23T07:51:23.153Z,6.90
2022-12-23T07:53:50.390Z,6.80
2022-12-23T07:56:17.672Z,6.80
2022-12-23T07:58:47.973Z,6.80
2022-12-23T08:01:14.978Z,6.80
2022-12-23T08:03:41.766Z,6.90
2022-12-23T08:06:09.441Z,6.90
2022-12-23T08:08:36.054Z,6.90
2022-12-23T08:11:03.990Z,6.90
2022-12-23T08:13:31.858Z,6.90
2022-12-23T08:15:59.771Z,6.90
2022-12-23T08:18:27.566Z,7.00
2022-12-23T08:20:55.120Z,7.00
2022-12-23T08:23:24.910Z,7.00
2022-12-23T08:26:05.757Z,7.10
2022-12-23T08:28:33.012Z,7.10
2022-12-23T08:31:10.896Z,7.20
2022-12-23T08:33:38.590Z,7.20
2022-12-23T08:36:06.464Z,7.20
2022-12-23T08:38:33.279Z,7.20
2022-12-23T08:40:59.942Z,7.30
2022-12-23T08:43:30.342Z,7.40
2022-12-23T08:46:02.461Z,7.40
2022-12-23T08:48:30.346Z,7.50
2022-12-23T08:50:56.987Z,7.60
2022-12-23T08:53:23.631Z,7.50
2022-12-23T08:55:50.269Z,7.60
2022-12-23T08:58:16.934Z,7.60
2022-12-23T09:00:43.562Z,7.60
2022-12-23T09:03:10.355Z,7.60
2022-12-23T09:05:41.509Z,7.60
2022-12-23T09:08:08.732Z,7.60
2022-12-23T09:10:40.254Z,7.60
2022-12-23T09:13:06.878Z,7.60
2022-12-23T09:15:38.698Z,7.70
2022-12-23T09:18:05.968Z,7.70
2022-12-23T09:20:32.627Z,7.80
2022-12-23T09:23:00.287Z,7.80
2022-12-23T09:25:27.078Z,7.90
2022-12-23T09:27:53.694Z,7.80
2022-12-23T09:30:20.431Z,7.80
2022-12-23T09:32:47.038Z,7.70
2022-12-23T09:35:13.716Z,7.70
2022-12-23T09:37:40.317Z,7.70
2022-12-23T09:40:07.437Z,7.70
2022-12-23T09:42:34.074Z,7.70
2022-12-23T09:45:03.790Z,7.70
2022-12-23T09:47:31.501Z,7.80
2022-12-23T09:50:00.635Z,7.80
2022-12-23T09:52:30.141Z,7.90
2022-12-23T09:54:56.833Z,7.90
2022-12-23T09:57:36.280Z,7.90
2022-12-23T10:00:07.846Z,7.90
2022-12-23T10:02:40.788Z,8.00
2022-12-23T10:05:21.425Z,7.90
2022-12-23T10:07:56.973Z,7.90
2022-12-23T10:10:30.654Z,7.90
2022-12-23T10:12:58.486Z,7.90
2022-12-23T10:15:25.101Z,7.90
2022-12-23T10:17:54.850Z,8.00
2022-12-23T10:20:31.742Z,8.00
2022-12-23T10:22:58.954Z,8.00
2022-12-23T10:25:33.274Z,7.90
2022-12-23T10:27:59.934Z,8.00
2022-12-23T10:33:22.641Z,8.00
2022-12-23T10:36:12.405Z,8.00
2022-12-23T10:38:53.962Z,8.00
2022-12-23T10:41:25.556Z,7.90
2022-12-23T10:43:55.381Z,8.00
2022-12-23T10:46:51.757Z,8.00
2022-12-23T10:49:49.519Z,8.10
2022-12-23T10:52:18.934Z,8.10
2022-12-23T10:54:46.178Z,8.20
2022-12-23T10:57:13.897Z,8.20
2022-12-23T10:59:40.521Z,8.20
2022-12-23T11:02:14.202Z,8.20
2022-12-23T11:04:45.396Z,8.20
2022-12-23T11:07:43.407Z,8.20
2022-12-23T11:10:07.591Z,8.20
2022-12-23T11:12:42.473Z,8.30
2022-12-23T11:15:24.827Z,8.30
2022-12-23T11:18:00.750Z,8.40
2022-12-23T11:20:27.361Z,8.40
2022-12-23T11:22:59.037Z,8.40
2022-12-23T11:25:28.719Z,8.40
2022-12-23T11:28:10.756Z,8.50
2022-12-23T11:30:57.700Z,8.50
2022-12-23T11:33:28.230Z,8.50
2022-12-23T11:36:01.592Z,8.60
2022-12-23T11:38:36.432Z,8.60
2022-12-23T11:41:04.715Z,8.70
2022-12-23T11:43:32.062Z,8.70
2022-12-23T11:46:15.350Z,8.80
2022-12-23T11:48:42.060Z,8.80
2022-12-23T11:51:24.836Z,8.90
2022-12-23T11:53:58.726Z,8.90
2022-12-23T11:56:26.224Z,8.90
2022-12-23T11:59:19.294Z,8.90
2022-12-23T12:02:08.971Z,8.90
2022-12-23T12:04:36.084Z,9.00
2022-12-23T12:07:03.648Z,9.10
2022-12-23T12:09:31.607Z,9.10
2022-12-23T12:12:11.800Z,9.10
2022-12-23T12:15:04.815Z,9.00
2022-12-23T12:17:36.064Z,9.00
2022-12-23T12:20:26.329Z,8.90
2022-12-23T12:22:57.178Z,8.90
2022-12-23T12:25:26.108Z,8.90
2022-12-23T12:28:04.216Z,8.90
2022-12-23T12:30:56.997Z,8.90
2022-12-23T12:33:27.907Z,8.80
2022-12-23T12:36:03.352Z,8.80
2022-12-23T12:38:34.769Z,8.90
2022-12-23T12:41:12.050Z,8.90
2022-12-23T12:43:42.536Z,8.90
2022-12-23T12:46:17.088Z,8.90
2022-12-23T12:49:02.206Z,8.90
2022-12-23T12:52:07.522Z,8.90
2022-12-23T12:54:44.263Z,8.90
2022-12-23T12:57:21.951Z,8.90
2022-12-23T12:59:56.387Z,8.80
2022-12-23T13:02:25.439Z,8.90
2022-12-23T13:05:12.793Z,8.80
2022-12-23T13:07:42.465Z,8.80
2022-12-23T13:10:16.257Z,8.80
2022-12-23T13:12:46.175Z,8.80
2022-12-23T13:15:23.708Z,8.80
2022-12-23T13:18:09.335Z,8.70
2022-12-23T13:20:51.268Z,8.70
2022-12-23T13:23:44.776Z,8.80
2022-12-23T13:26:24.112Z,8.80
2022-12-23T13:29:09.647Z,8.70
2022-12-23T13:31:39.376Z,8.70
2022-12-23T13:34:23.886Z,8.70
2022-12-23T13:37:02.796Z,8.70
2022-12-23T13:39:39.956Z,8.70
2022-12-23T13:42:17.923Z,8.70
2022-12-23T13:44:44.773Z,8.60
2022-12-23T13:47:21.655Z,8.60
2022-12-23T13:49:48.285Z,8.60
2022-12-23T13:52:33.819Z,8.60
2022-12-23T13:55:21.251Z,8.60
2022-12-23T13:58:03.648Z,8.60
2022-12-23T14:00:31.966Z,8.60
2022-12-23T14:03:00.148Z,8.60
2022-12-23T14:05:45.318Z,8.60
2022-12-23T14:08:18.261Z,8.60
2022-12-23T14:10:59.923Z,8.60
2022-12-23T14:13:31.697Z,8.60
2022-12-23T14:15:58.395Z,8.60
2022-12-23T14:18:44.989Z,8.50
2022-12-23T14:21:31.860Z,8.50
2022-12-23T14:24:07.554Z,8.50
2022-12-23T14:26:52.451Z,8.50
2022-12-23T14:29:38.124Z,8.50
2022-12-23T14:32:05.279Z,8.50
2022-12-23T14:34:32.834Z,8.40
2022-12-23T14:37:18.316Z,8.40
2022-12-23T14:39:44.925Z,8.40
2022-12-23T14:42:16.552Z,8.40
2022-12-23T14:44:49.810Z,8.40
2022-12-23T14:47:46.410Z,8.40
2022-12-23T14:50:32.013Z,8.40
2022-12-23T14:52:59.326Z,8.40
2022-12-23T14:55:31.683Z,8.40
2022-12-23T14:58:07.790Z,8.40
2022-12-23T15:00:44.794Z,8.40
2022-12-23T15:03:12.042Z,8.40
2022-12-23T15:05:39.941Z,8.30
2022-12-23T15:08:18.893Z,8.30
2022-12-23T15:10:47.969Z,8.40
2022-12-23T15:13:17.311Z,8.40
2022-12-23T15:16:00.657Z,8.40
2022-12-23T15:18:28.589Z,8.30
2022-12-23T15:20:59.148Z,8.30
2022-12-23T15:23:25.853Z,8.30
2022-12-23T15:25:57.130Z,8.30
2022-12-23T15:28:29.969Z,8.20
2022-12-23T15:30:57.310Z,8.20
2022-12-23T15:34:01.430Z,8.20
2022-12-23T15:36:13.574Z,8.20
2022-12-23T15:38:40.805Z,8.20
2022-12-23T15:41:15.366Z,8.10
2022-12-23T15:43:42.652Z,8.20
2022-12-23T15:46:14.600Z,8.20
2022-12-23T15:48:41.904Z,8.20
2022-12-23T15:51:12.679Z,8.20
2022-12-23T15:53:40.562Z,8.20
2022-12-23T15:56:18.652Z,8.20
2022-12-23T15:58:46.585Z,8.20
2022-12-23T16:01:17.269Z,8.20
2022-12-23T16:04:10.383Z,8.20
2022-12-23T16:06:37.262Z,8.20
2022-12-23T16:09:05.535Z,8.20
2022-12-23T16:11:59.345Z,8.20
2022-12-23T16:14:32.029Z,8.20
2022-12-23T16:16:59.951Z,8.20
2022-12-23T16:19:46.795Z,8.20
2022-12-23T16:22:19.079Z,8.20
2022-12-23T16:24:56.838Z,8.20
2022-12-23T16:27:40.692Z,8.20
2022-12-23T16:30:09.839Z,8.20
2022-12-23T16:32:47.478Z,8.20
2022-12-23T16:35:25.560Z,8.20
2022-12-23T16:37:56.483Z,8.20
2022-12-23T16:40:24.497Z,8.10
2022-12-23T16:42:51.108Z,8.20
2022-12-23T16:45:17.775Z,8.20
2022-12-23T16:47:44.432Z,8.20
2022-12-23T16:50:14.555Z,8.20
2022-12-23T16:52:41.279Z,8.20
2022-12-23T16:55:14.227Z,8.20
2022-12-23T16:57:40.965Z,8.20
2022-12-23T17:00:09.621Z,8.20
2022-12-23T17:02:36.314Z,8.20
2022-12-23T17:05:04.030Z,8.20
2022-12-23T17:07:30.612Z,8.20
2022-12-23T17:09:57.223Z,8.20
2022-12-23T17:12:23.832Z,8.20
2022-12-23T17:14:50.469Z,8.30
2022-12-23T17:17:17.099Z,8.30
2022-12-23T17:19:43.766Z,8.30
2022-12-23T17:22:12.284Z,8.30
2022-12-23T17:24:38.956Z,8.30
2022-12-23T17:27:13.588Z,8.30
2022-12-23T17:29:40.519Z,8.30
2022-12-23T17:32:10.197Z,8.30
2022-12-23T17:34:36.931Z,8.30
2022-12-23T17:37:07.997Z,8.30
2022-12-23T17:39:34.575Z,8.30
2022-12-23T17:42:01.190Z,8.30
2022-12-23T17:44:27.856Z,8.30
2022-12-23T17:46:54.485Z,8.30
2022-12-23T17:49:21.166Z,8.40
2022-12-23T17:51:47.809Z,8.40
2022-12-23T17:54:24.359Z,8.40
2022-12-23T17:56:51.357Z,8.40
2022-12-23T17:59:18.104Z,8.40
2022-12-23T18:01:50.335Z,8.40
2022-12-23T18:22:33.981Z,8.50
2022-12-23T18:25:32.637Z,8.50
2022-12-23T18:27:59.793Z,8.50
2022-12-23T18:30:56.200Z,8.50
2022-12-23T18:33:32.174Z,8.60
2022-12-23T18:36:14.201Z,8.60
2022-12-23T18:45:23.806Z,8.60
2022-12-23T18:51:27.963Z,8.70
2022-12-23T18:58:00.452Z,8.70
2022-12-23T19:06:55.588Z,8.80
2022-12-23T19:09:48.430Z,8.70
2022-12-23T19:15:41.514Z,8.70
2022-12-23T19:18:16.410Z,8.80
2022-12-23T19:20:44.899Z,8.70
2022-12-23T19:23:27.404Z,8.80
2022-12-23T19:26:06.406Z,8.80
2022-12-23T19:28:38.219Z,8.80
2022-12-23T19:31:23.145Z,8.80
2022-12-23T19:33:50.016Z,8.80
2022-12-23T19:36:22.738Z,8.80
2022-12-23T19:39:36.703Z,8.80
2022-12-23T19:42:06.519Z,8.70
2022-12-23T19:51:49.124Z,8.80
2022-12-23T19:54:41.533Z,8.80
2022-12-23T20:00:44.594Z,8.80
2022-12-23T20:03:17.374Z,8.80
2022-12-23T20:05:47.844Z,8.80
2022-12-23T20:08:28.649Z,8.70
2022-12-23T20:14:27.825Z,8.70
2022-12-23T20:16:58.698Z,8.70
2022-12-23T20:19:25.333Z,8.70
2022-12-23T20:21:52.104Z,8.70
2022-12-23T20:28:37.991Z,8.70
2022-12-23T20:31:09.584Z,8.70
2022-12-23T20:33:37.020Z,8.70
2022-12-23T20:36:11.608Z,8.70
2022-12-23T20:38:39.059Z,8.70
2022-12-23T20:41:06.403Z,8.70
2022-12-23T20:43:34.722Z,8.70
2022-12-23T20:46:02.126Z,8.70
2022-12-23T20:48:34.108Z,8.60
2022-12-23T21:01:36.357Z,8.60
2022-12-23T21:04:07.517Z,8.60
2022-12-23T21:09:36.351Z,8.60
2022-12-23T21:12:03.063Z,8.70
2022-12-23T21:14:29.708Z,8.60
2022-12-23T21:17:02.945Z,8.60
2022-12-23T21:19:30.201Z,8.60
2022-12-23T21:21:57.069Z,8.60
2022-12-23T21:24:23.782Z,8.60
2022-12-23T21:26:57.050Z,8.60
2022-12-23T21:29:25.076Z,8.60
2022-12-23T21:31:59.278Z,8.60
2022-12-23T21:34:26.197Z,8.60
2022-12-23T21:36:54.004Z,8.60
2022-12-23T21:39:20.728Z,8.60
2022-12-23T21:41:49.175Z,8.60
2022-12-23T21:44:15.852Z,8.60
2022-12-23T21:46:57.854Z,8.60
2022-12-23T21:49:48.036Z,8.50
2022-12-23T21:52:14.875Z,8.50
2022-12-23T21:54:41.689Z,8.50
2022-12-23T22:03:28.909Z,8.50
2022-12-23T22:09:56.731Z,8.50
2022-12-23T22:14:51.283Z,8.50
2022-12-23T22:18:03.744Z,8.50
2022-12-23T22:31:03.424Z,8.50
2022-12-23T22:33:31.075Z,8.50
2022-12-23T22:39:21.628Z,8.50
2022-12-23T22:42:56.537Z,8.50
2022-12-23T22:45:47.997Z,8.50
2022-12-23T22:52:17.001Z,8.90
2022-12-23T22:54:43.669Z,8.70
2022-12-23T22:57:11.310Z,9.50
2022-12-23T22:59:38.003Z,9.60
2022-12-23T23:02:04.763Z,9.80
2022-12-23T23:04:31.500Z,9.70
2022-12-23T23:13:53.149Z,9.90
2022-12-23T23:16:21.144Z,10.10
2022-12-23T23:26:02.965Z,9.90
2022-12-23T23:35:10.889Z,9.40
2022-12-23T23:37:38.017Z,9.50
2022-12-23T23:43:37.481Z,9.40
2022-12-23T23:46:04.198Z,9.30
2022-12-23T23:51:22.134Z,9.20
2022-12-23T23:53:51.038Z,9.10
2022-12-23T23:56:23.751Z,9.10
2022-12-23T23:58:53.686Z,9.10
